createdAt,value
2018-06-24T00:00:26.261Z,57.84
2018-06-24T00:01:26.314Z,57.26
2018-06-24T00:03:19.303Z,56.50
2018-06-24T00:04:19.368Z,57.07
2018-06-24T00:06:12.369Z,56.79
2018-06-24T00:07:12.421Z,56.02
2018-06-24T00:09:05.410Z,56.60
2018-06-24T00:10:05.470Z,56.88
2018-06-24T00:11:58.468Z,55.83
2018-06-24T00:12:58.523Z,56.88
2018-06-24T00:14:51.518Z,55.93
2018-06-24T00:15:51.574Z,53.92
2018-06-24T00:17:44.585Z,53.06
2018-06-24T00:18:44.618Z,53.41
2018-06-24T00:20:37.611Z,51.79
2018-06-24T00:21:37.667Z,51.21
2018-06-24T00:23:30.659Z,51.12
2018-06-24T00:24:30.717Z,50.35
2018-06-24T00:26:23.714Z,49.49
2018-06-24T00:27:23.766Z,48.44
2018-06-24T00:29:16.751Z,48.07
2018-06-24T00:30:16.814Z,47.87
2018-06-24T00:32:09.816Z,47.11
2018-06-24T00:33:09.865Z,47.39
2018-06-24T00:35:03.366Z,47.20
2018-06-24T00:36:03.421Z,47.87
2018-06-24T00:37:56.427Z,47.30
2018-06-24T00:38:56.486Z,46.72
2018-06-24T00:40:49.482Z,46.72
2018-06-24T00:41:49.538Z,45.67
2018-06-24T00:43:42.519Z,45.96
2018-06-24T00:44:42.580Z,46.56
2018-06-24T00:46:35.583Z,47.89
2018-06-24T00:47:35.636Z,47.78
2018-06-24T00:49:28.627Z,47.39
2018-06-24T00:50:28.687Z,47.58
2018-06-24T00:52:21.683Z,45.31
2018-06-24T00:53:21.737Z,45.87
2018-06-24T00:55:14.734Z,46.34
2018-06-24T00:56:14.789Z,46.66
2018-06-24T00:58:07.773Z,44.34
2018-06-24T00:59:07.837Z,44.15
2018-06-24T01:01:00.825Z,44.15
2018-06-24T01:02:00.883Z,44.15
2018-06-24T01:03:53.867Z,44.05
2018-06-24T01:04:53.931Z,43.66
2018-06-24T01:06:46.925Z,45.10
2018-06-24T01:07:46.978Z,45.01
2018-06-24T01:09:39.972Z,45.10
2018-06-24T01:10:40.032Z,45.58
2018-06-24T01:12:33.027Z,45.01
2018-06-24T01:13:33.077Z,45.20
2018-06-24T01:15:26.074Z,45.01
2018-06-24T01:16:26.131Z,45.48
2018-06-24T01:18:19.115Z,47.23
2018-06-24T01:19:19.176Z,47.80
2018-06-24T01:21:12.171Z,47.97
2018-06-24T01:22:12.226Z,47.71
2018-06-24T01:24:05.215Z,47.52
2018-06-24T01:25:05.278Z,46.92
2018-06-24T01:26:58.272Z,46.75
2018-06-24T01:27:58.324Z,45.77
2018-06-24T01:29:51.310Z,46.25
2018-06-24T01:30:51.370Z,46.34
2018-06-24T01:32:44.369Z,45.77
2018-06-24T01:33:44.421Z,46.53
2018-06-24T01:35:37.410Z,46.92
2018-06-24T01:36:37.468Z,47.20
2018-06-24T01:38:30.454Z,48.07
2018-06-24T01:39:30.515Z,46.92
2018-06-24T01:41:23.512Z,47.58
2018-06-24T01:42:23.563Z,47.61
2018-06-24T01:44:16.551Z,48.35
2018-06-24T01:45:16.614Z,46.53
2018-06-24T01:47:09.613Z,48.35
2018-06-24T01:48:09.669Z,48.09
2018-06-24T01:50:02.669Z,49.49
2018-06-24T01:51:02.726Z,48.83
2018-06-24T01:52:55.724Z,48.57
2018-06-24T01:53:55.783Z,48.57
2018-06-24T01:55:48.786Z,49.11
2018-06-24T01:56:48.837Z,48.44
2018-06-24T01:58:41.840Z,49.11
2018-06-24T01:59:41.895Z,48.93
2018-06-24T02:01:34.895Z,48.44
2018-06-24T02:02:34.953Z,48.25
2018-06-24T02:04:27.949Z,48.35
2018-06-24T02:05:28.010Z,47.80
2018-06-24T02:07:21.004Z,47.68
2018-06-24T02:08:21.062Z,48.18
2018-06-24T02:10:14.051Z,46.34
2018-06-24T02:11:14.112Z,46.92
2018-06-24T02:13:07.108Z,46.34
2018-06-24T02:14:07.159Z,46.34
2018-06-24T02:16:00.144Z,45.03
2018-06-24T02:17:00.206Z,44.65
2018-06-24T02:18:53.202Z,45.39
2018-06-24T02:19:53.252Z,45.48
2018-06-24T02:21:46.259Z,45.10
2018-06-24T02:22:47.267Z,45.01
2018-06-24T02:24:39.284Z,46.92
2018-06-24T02:25:39.349Z,47.11
2018-06-24T02:27:32.343Z,46.44
2018-06-24T02:28:32.399Z,46.44
2018-06-24T02:30:25.384Z,46.82
2018-06-24T02:31:25.449Z,45.48
2018-06-24T02:33:18.443Z,45.87
2018-06-24T02:34:18.493Z,46.25
2018-06-24T02:36:11.482Z,46.82
2018-06-24T02:37:11.543Z,46.34
2018-06-24T02:39:04.544Z,46.72
2018-06-24T02:40:04.595Z,45.20
2018-06-24T02:41:57.608Z,47.30
2018-06-24T02:42:57.655Z,47.01
2018-06-24T02:44:50.645Z,45.29
2018-06-24T02:45:50.705Z,45.29
2018-06-24T02:47:43.702Z,45.48
2018-06-24T02:48:43.755Z,45.39
2018-06-24T02:50:36.740Z,46.06
2018-06-24T02:51:36.802Z,46.92
2018-06-24T02:53:29.846Z,45.96
2018-06-24T02:54:29.849Z,45.10
2018-06-24T02:56:22.837Z,45.01
2018-06-24T02:57:22.899Z,45.01
2018-06-24T02:59:15.893Z,45.01
2018-06-24T03:00:15.945Z,44.05
2018-06-24T03:02:08.931Z,42.71
2018-06-24T03:03:08.994Z,41.95
2018-06-24T03:05:02.007Z,39.75
2018-06-24T03:06:02.056Z,39.65
2018-06-24T03:07:55.054Z,39.08
2018-06-24T03:08:55.107Z,38.51
2018-06-24T03:10:48.095Z,38.32
2018-06-24T03:11:48.160Z,37.84
2018-06-24T03:13:41.152Z,37.46
2018-06-24T03:14:41.202Z,38.12
2018-06-24T03:16:34.189Z,38.03
2018-06-24T03:17:34.250Z,38.03
2018-06-24T03:19:27.246Z,37.46
2018-06-24T03:20:27.298Z,37.65
2018-06-24T03:22:20.288Z,38.32
2018-06-24T03:23:20.349Z,38.22
2018-06-24T03:25:13.342Z,38.22
2018-06-24T03:26:13.396Z,38.70
2018-06-24T03:28:06.391Z,38.32
2018-06-24T03:29:06.444Z,38.03
2018-06-24T03:30:59.437Z,38.60
2018-06-24T03:31:59.490Z,38.03
2018-06-24T03:33:52.486Z,38.12
2018-06-24T03:34:52.541Z,38.12
2018-06-24T03:36:45.527Z,38.32
2018-06-24T03:37:45.593Z,38.60
2018-06-24T03:39:38.584Z,38.98
2018-06-24T03:40:38.637Z,38.79
2018-06-24T03:42:31.624Z,39.27
2018-06-24T03:43:31.682Z,39.65
2018-06-24T03:45:24.680Z,39.75
2018-06-24T03:46:24.734Z,39.75
2018-06-24T03:48:17.721Z,40.13
2018-06-24T03:49:17.783Z,40.89
2018-06-24T03:51:10.779Z,40.70
2018-06-24T03:52:10.835Z,40.89
2018-06-24T03:54:03.827Z,41.66
2018-06-24T03:55:03.882Z,41.56
2018-06-24T03:56:56.878Z,38.98
2018-06-24T03:57:56.940Z,39.47
2018-06-24T03:59:49.950Z,40.32
2018-06-24T04:00:49.991Z,40.23
2018-06-24T04:02:42.987Z,40.82
2018-06-24T04:03:43.043Z,40.72
2018-06-24T04:05:36.037Z,40.23
2018-06-24T04:06:36.089Z,40.32
2018-06-24T04:08:29.075Z,40.32
2018-06-24T04:09:29.134Z,39.94
2018-06-24T04:11:22.133Z,39.27
2018-06-24T04:12:22.189Z,39.08
2018-06-24T04:14:15.182Z,38.98
2018-06-24T04:15:15.237Z,38.98
2018-06-24T04:17:08.225Z,39.47
2018-06-24T04:18:08.285Z,39.18
2018-06-24T04:20:01.280Z,40.06
2018-06-24T04:21:01.335Z,40.42
2018-06-24T04:22:54.317Z,40.32
2018-06-24T04:23:54.379Z,41.20
2018-06-24T04:25:47.393Z,41.49
2018-06-24T04:26:47.430Z,41.58
2018-06-24T04:28:40.416Z,42.64
2018-06-24T04:29:40.481Z,42.16
2018-06-24T04:31:33.474Z,42.73
2018-06-24T04:32:33.529Z,42.73
2018-06-24T04:34:27.043Z,43.59
2018-06-24T04:35:27.084Z,44.26
2018-06-24T04:37:20.072Z,44.65
2018-06-24T04:38:20.134Z,44.84
2018-06-24T04:40:13.125Z,44.26
2018-06-24T04:41:13.181Z,45.12
2018-06-24T04:43:06.169Z,44.45
2018-06-24T04:44:06.229Z,45.41
2018-06-24T04:45:59.226Z,45.03
2018-06-24T04:46:59.280Z,44.45
2018-06-24T04:48:52.266Z,45.03
2018-06-24T04:49:52.328Z,45.89
2018-06-24T04:51:45.337Z,44.95
2018-06-24T04:52:45.379Z,45.43
2018-06-24T04:54:38.369Z,45.34
2018-06-24T04:55:38.428Z,44.86
2018-06-24T04:57:31.423Z,45.05
2018-06-24T04:58:31.475Z,45.15
2018-06-24T05:00:24.471Z,45.51
2018-06-24T05:01:24.523Z,45.91
2018-06-24T05:03:17.511Z,45.62
2018-06-24T05:04:17.572Z,46.10
2018-06-24T05:06:10.568Z,46.48
2018-06-24T05:07:10.619Z,46.30
2018-06-24T05:09:03.617Z,46.58
2018-06-24T05:10:03.677Z,45.53
2018-06-24T05:11:56.674Z,45.43
2018-06-24T05:12:56.727Z,45.53
2018-06-24T05:14:49.714Z,46.01
2018-06-24T05:15:49.776Z,46.01
2018-06-24T05:17:42.769Z,46.10
2018-06-24T05:18:42.824Z,46.10
2018-06-24T05:20:35.814Z,45.81
2018-06-24T05:21:35.876Z,46.96
2018-06-24T05:23:28.871Z,47.16
2018-06-24T05:24:28.927Z,47.06
2018-06-24T05:26:21.918Z,47.06
2018-06-24T05:27:21.977Z,48.02
2018-06-24T05:29:14.966Z,49.74
2018-06-24T05:30:15.025Z,49.45
2018-06-24T05:32:08.022Z,49.38
2018-06-24T05:33:08.076Z,49.93
2018-06-24T05:35:01.567Z,52.54
2018-06-24T05:36:01.630Z,52.06
2018-06-24T05:37:54.626Z,51.87
2018-06-24T05:38:54.681Z,52.92
2018-06-24T05:40:47.667Z,54.16
2018-06-24T05:41:47.737Z,53.59
2018-06-24T05:43:40.724Z,53.88
2018-06-24T05:44:40.778Z,54.57
2018-06-24T05:46:33.763Z,53.69
2018-06-24T05:47:33.830Z,55.15
2018-06-24T05:49:26.831Z,55.91
2018-06-24T05:50:26.890Z,56.49
2018-06-24T05:52:19.874Z,58.02
2018-06-24T05:53:19.927Z,58.22
2018-06-24T05:55:12.912Z,59.08
2018-06-24T05:56:12.979Z,58.88
2018-06-24T05:58:05.978Z,57.64
2018-06-24T05:59:06.041Z,58.02
2018-06-24T06:00:59.045Z,59.45
2018-06-24T06:01:59.078Z,59.65
2018-06-24T06:03:52.077Z,58.59
2018-06-24T06:04:52.134Z,59.36
2018-06-24T06:06:45.121Z,59.75
2018-06-24T06:07:45.183Z,59.55
2018-06-24T06:09:38.177Z,58.50
2018-06-24T06:10:38.238Z,59.17
2018-06-24T06:12:31.226Z,60.64
2018-06-24T06:13:31.282Z,60.44
2018-06-24T06:15:24.273Z,61.21
2018-06-24T06:16:24.332Z,61.50
2018-06-24T06:18:17.336Z,63.13
2018-06-24T06:19:17.384Z,64.28
2018-06-24T06:21:10.375Z,63.26
2018-06-24T06:22:10.435Z,64.69
2018-06-24T06:24:03.431Z,64.69
2018-06-24T06:25:03.492Z,63.73
2018-06-24T06:26:56.474Z,64.18
2018-06-24T06:27:56.539Z,64.47
2018-06-24T06:29:49.570Z,64.18
2018-06-24T06:30:49.591Z,63.03
2018-06-24T06:32:42.579Z,61.21
2018-06-24T06:33:42.646Z,61.69
2018-06-24T06:35:35.642Z,61.79
2018-06-24T06:36:35.701Z,59.48
2018-06-24T06:38:28.701Z,60.83
2018-06-24T06:39:28.755Z,60.54
2018-06-24T06:41:21.749Z,60.44
2018-06-24T06:42:21.815Z,60.93
2018-06-24T06:44:14.816Z,60.35
2018-06-24T06:45:15.091Z,60.64
2018-06-24T06:47:07.873Z,60.93
2018-06-24T06:48:07.932Z,62.46
2018-06-24T06:50:00.931Z,60.93
2018-06-24T06:51:00.983Z,61.43
2018-06-24T06:52:53.971Z,61.53
2018-06-24T06:53:54.036Z,63.45
2018-06-24T06:55:47.033Z,62.10
2018-06-24T06:56:47.086Z,61.34
2018-06-24T06:58:40.088Z,59.13
2018-06-24T06:59:40.139Z,62.87
2018-06-24T07:01:33.129Z,57.79
2018-06-24T07:02:33.194Z,62.10
2018-06-24T07:04:26.191Z,59.93
2018-06-24T07:05:26.246Z,63.19
2018-06-24T07:07:19.238Z,62.42
2018-06-24T07:08:19.300Z,60.70
2018-06-24T07:10:12.297Z,60.60
2018-06-24T07:11:12.354Z,60.57
2018-06-24T07:13:05.370Z,61.53
2018-06-24T07:14:05.414Z,60.28
2018-06-24T07:15:58.418Z,59.13
2018-06-24T07:16:58.470Z,59.13
2018-06-24T07:18:51.463Z,58.44
2018-06-24T07:19:51.529Z,58.56
2018-06-24T07:21:44.527Z,57.60
2018-06-24T07:22:44.588Z,59.23
2018-06-24T07:24:37.576Z,61.63
2018-06-24T07:25:37.640Z,61.15
2018-06-24T07:27:30.641Z,60.83
2018-06-24T07:28:30.693Z,60.47
2018-06-24T07:30:23.690Z,61.24
2018-06-24T07:31:23.746Z,61.72
2018-06-24T07:33:16.877Z,62.49
2018-06-24T07:34:16.801Z,61.72
2018-06-24T07:36:09.799Z,64.43
2018-06-24T07:37:09.847Z,65.20
2018-06-24T07:39:02.859Z,66.29
2018-06-24T07:40:02.918Z,67.44
2018-06-24T07:41:55.929Z,70.80
2018-06-24T07:42:55.973Z,73.24
2018-06-24T07:44:49.003Z,74.29
2018-06-24T07:45:49.031Z,73.91
2018-06-24T07:47:42.027Z,75.54
2018-06-24T07:48:42.136Z,75.45
2018-06-24T07:50:35.131Z,74.64
2018-06-24T07:51:35.154Z,74.77
2018-06-24T07:53:28.144Z,74.64
2018-06-24T07:54:28.206Z,74.29
2018-06-24T07:56:21.209Z,75.82
2018-06-24T07:57:21.281Z,75.63
2018-06-24T07:59:14.255Z,76.31
2018-06-24T08:00:14.320Z,76.07
2018-06-24T08:02:07.320Z,75.70
2018-06-24T08:03:07.376Z,75.70
2018-06-24T08:05:00.371Z,75.12
2018-06-24T08:06:00.476Z,75.02
2018-06-24T08:07:53.489Z,74.93
2018-06-24T08:08:53.498Z,75.63
2018-06-24T08:10:46.506Z,76.56
2018-06-24T08:11:46.550Z,75.50
2018-06-24T08:13:39.543Z,76.17
2018-06-24T08:14:39.705Z,76.17
2018-06-24T08:16:32.606Z,76.40
2018-06-24T08:17:32.659Z,76.46
2018-06-24T08:19:25.671Z,76.88
2018-06-24T08:20:25.732Z,76.98
2018-06-24T08:22:18.740Z,76.31
2018-06-24T08:23:18.798Z,76.40
2018-06-24T08:25:11.793Z,76.75
2018-06-24T08:26:11.859Z,76.65
2018-06-24T08:28:04.856Z,78.13
2018-06-24T08:29:04.914Z,77.36
2018-06-24T08:30:57.919Z,77.65
2018-06-24T08:31:57.979Z,78.42
2018-06-24T08:33:50.967Z,78.45
2018-06-24T08:34:51.031Z,78.42
2018-06-24T08:36:44.032Z,79.32
2018-06-24T08:37:44.094Z,78.55
2018-06-24T08:39:38.115Z,78.27
2018-06-24T08:40:38.198Z,78.17
2018-06-24T08:42:31.189Z,78.17
2018-06-24T08:43:31.244Z,78.45
2018-06-24T08:45:24.238Z,78.55
2018-06-24T08:46:24.308Z,78.65
2018-06-24T08:48:17.302Z,78.55
2018-06-24T08:49:17.359Z,78.94
2018-06-24T08:51:10.364Z,78.55
2018-06-24T08:52:10.424Z,78.65
2018-06-24T08:54:03.421Z,78.55
2018-06-24T08:55:03.478Z,77.73
2018-06-24T08:56:56.481Z,77.83
2018-06-24T08:57:56.536Z,78.30
2018-06-24T08:59:49.529Z,77.31
2018-06-24T09:00:49.592Z,78.11
2018-06-24T09:02:42.600Z,76.92
2018-06-24T09:03:42.662Z,77.40
2018-06-24T09:05:35.655Z,77.63
2018-06-24T09:06:35.720Z,76.96
2018-06-24T09:08:28.726Z,77.01
2018-06-24T09:09:28.782Z,77.01
2018-06-24T09:11:21.785Z,78.27
2018-06-24T09:12:21.842Z,78.17
2018-06-24T09:14:14.835Z,78.23
2018-06-24T09:15:14.897Z,78.61
2018-06-24T09:17:07.889Z,78.27
2018-06-24T09:18:07.952Z,78.36
2018-06-24T09:20:00.946Z,79.71
2018-06-24T09:21:01.010Z,78.17
2018-06-24T09:22:54.006Z,78.17
2018-06-24T09:23:54.082Z,78.17
2018-06-24T09:25:47.104Z,77.50
2018-06-24T09:26:47.143Z,78.27
2018-06-24T09:34:01.115Z,75.02
2018-06-24T09:35:01.172Z,73.96
2018-06-24T09:36:54.175Z,74.25
2018-06-24T09:37:54.231Z,74.34
2018-06-24T09:39:47.223Z,75.02
2018-06-24T09:40:47.292Z,74.92
2018-06-24T09:42:40.329Z,75.40
2018-06-24T09:43:40.384Z,75.59
2018-06-24T09:45:33.379Z,74.73
2018-06-24T09:46:33.445Z,75.05
2018-06-24T09:48:26.448Z,73.80
2018-06-24T09:49:26.503Z,72.45
2018-06-24T09:51:19.500Z,73.32
2018-06-24T09:52:19.687Z,73.90
2018-06-24T09:54:12.571Z,75.40
2018-06-24T09:55:12.631Z,76.04
2018-06-24T09:57:05.636Z,77.23
2018-06-24T09:58:05.688Z,76.46
2018-06-24T09:59:58.681Z,75.79
2018-06-24T10:00:58.757Z,75.98
2018-06-24T10:02:51.750Z,74.73
2018-06-24T10:03:51.816Z,75.59
2018-06-24T10:05:44.810Z,76.46
2018-06-24T10:06:44.872Z,76.36
2018-06-24T10:08:37.881Z,75.37
2018-06-24T10:09:37.934Z,76.52
2018-06-24T10:11:30.934Z,76.90
2018-06-24T10:12:30.995Z,78.48
2018-06-24T10:14:23.994Z,76.71
2018-06-24T10:15:24.054Z,77.09
2018-06-24T10:17:17.046Z,77.29
2018-06-24T10:18:17.116Z,78.25
2018-06-24T10:20:10.114Z,77.09
2018-06-24T10:21:10.174Z,77.09
2018-06-24T10:23:03.181Z,77.04
2018-06-24T10:24:03.233Z,77.33
2018-06-24T10:25:56.295Z,76.90
2018-06-24T10:26:56.294Z,77.76
2018-06-24T10:28:49.294Z,77.58
2018-06-24T10:29:49.355Z,78.48
2018-06-24T10:31:42.859Z,77.23
2018-06-24T10:32:42.987Z,76.88
2018-06-24T10:34:36.036Z,75.92
2018-06-24T10:35:35.982Z,76.40
2018-06-24T10:37:29.049Z,76.75
2018-06-24T10:38:29.112Z,77.09
2018-06-24T10:40:22.115Z,77.86
2018-06-24T10:41:22.174Z,78.15
2018-06-24T10:43:15.170Z,78.02
2018-06-24T10:44:15.250Z,78.34
2018-06-24T10:46:08.237Z,78.44
2018-06-24T10:47:08.295Z,78.06
2018-06-24T10:49:01.309Z,78.25
2018-06-24T10:50:01.357Z,78.53
2018-06-24T10:51:54.352Z,78.25
2018-06-24T10:52:54.444Z,79.05
2018-06-24T10:54:47.418Z,78.58
2018-06-24T10:55:47.479Z,78.28
2018-06-24T10:57:40.480Z,78.19
2018-06-24T10:58:40.547Z,79.15
2018-06-24T11:00:33.548Z,78.19
2018-06-24T11:01:33.597Z,78.06
2018-06-24T11:03:26.600Z,78.73
2018-06-24T11:04:26.668Z,78.15
2018-06-24T11:06:19.669Z,79.11
2018-06-24T11:07:19.738Z,78.53
2018-06-24T11:09:12.740Z,78.53
2018-06-24T11:10:13.091Z,78.53
2018-06-24T11:12:05.791Z,78.63
2018-06-24T11:13:05.864Z,78.53
2018-06-24T11:14:58.858Z,78.86
2018-06-24T11:15:58.916Z,79.25
2018-06-24T11:17:51.909Z,78.28
2018-06-24T11:18:51.975Z,78.09
2018-06-24T11:20:44.978Z,77.90
2018-06-24T11:21:45.043Z,77.86
2018-06-24T11:23:38.075Z,78.48
2018-06-24T11:24:38.162Z,78.28
2018-06-24T11:26:31.162Z,78.67
2018-06-24T11:27:31.181Z,78.19
2018-06-24T11:29:24.253Z,78.00
2018-06-24T11:30:24.221Z,78.48
2018-06-24T11:32:17.227Z,78.48
2018-06-24T11:33:17.306Z,78.38
2018-06-24T11:35:10.312Z,78.73
2018-06-24T11:36:10.350Z,78.53
2018-06-24T11:38:03.367Z,78.73
2018-06-24T11:39:03.428Z,78.59
2018-06-24T11:40:56.467Z,78.88
2018-06-24T11:41:56.519Z,79.07
2018-06-24T11:43:49.506Z,79.07
2018-06-24T11:44:49.553Z,77.63
2018-06-24T11:46:42.577Z,77.25
2018-06-24T11:47:42.592Z,76.96
2018-06-24T11:49:35.591Z,79.50
2018-06-24T11:50:35.656Z,79.11
2018-06-24T11:52:28.661Z,78.25
2018-06-24T11:53:28.714Z,78.63
2018-06-24T11:55:21.721Z,78.25
2018-06-24T11:56:21.777Z,79.79
2018-06-24T11:58:14.777Z,79.40
2018-06-24T11:59:14.839Z,78.83
2018-06-24T12:01:07.837Z,79.02
2018-06-24T12:02:07.899Z,78.73
2018-06-24T12:04:00.934Z,78.92
2018-06-24T12:05:00.963Z,79.21
2018-06-24T12:06:53.969Z,79.15
2018-06-24T12:07:54.022Z,78.86
2018-06-24T12:09:47.052Z,79.44
2018-06-24T12:10:47.110Z,79.02
2018-06-24T12:12:40.083Z,79.02
2018-06-24T12:13:40.141Z,78.92
2018-06-24T12:15:33.156Z,79.30
2018-06-24T12:16:33.208Z,78.83
2018-06-24T12:18:26.214Z,79.30
2018-06-24T12:19:26.275Z,79.21
2018-06-24T12:21:19.296Z,78.83
2018-06-24T12:22:19.344Z,78.63
2018-06-24T12:24:12.849Z,79.30
2018-06-24T12:25:12.908Z,79.21
2018-06-24T12:27:05.945Z,79.02
2018-06-24T12:28:05.968Z,79.11
2018-06-24T12:29:58.959Z,79.21
2018-06-24T12:30:59.022Z,78.73
2018-06-24T12:32:52.025Z,79.21
2018-06-24T12:33:52.082Z,78.73
2018-06-24T12:35:45.075Z,79.21
2018-06-24T12:36:45.143Z,79.15
2018-06-24T12:38:38.141Z,79.05
2018-06-24T12:39:38.197Z,79.21
2018-06-24T12:41:31.743Z,79.35
2018-06-24T12:42:31.266Z,78.67
2018-06-24T12:44:24.253Z,78.67
2018-06-24T12:45:24.319Z,79.02
2018-06-24T12:47:17.314Z,79.73
2018-06-24T12:48:17.374Z,78.58
2018-06-24T12:50:10.370Z,78.23
2018-06-24T12:51:10.435Z,78.23
2018-06-24T12:53:03.951Z,79.05
2018-06-24T12:54:04.004Z,78.38
2018-06-24T12:55:57.004Z,77.33
2018-06-24T12:56:57.064Z,79.63
2018-06-24T12:58:50.229Z,78.58
2018-06-24T12:59:50.456Z,78.61
2018-06-24T13:01:43.120Z,78.03
2018-06-24T13:02:43.180Z,79.00
2018-06-24T13:04:36.188Z,78.13
2018-06-24T13:05:36.249Z,77.75
2018-06-24T13:07:29.246Z,78.33
2018-06-24T13:08:29.305Z,78.03
2018-06-24T13:10:22.306Z,78.52
2018-06-24T13:11:22.373Z,78.58
2018-06-24T13:13:15.374Z,78.77
2018-06-24T13:14:15.459Z,78.77
2018-06-24T13:16:08.431Z,79.15
2018-06-24T13:17:08.493Z,79.50
2018-06-24T13:19:01.495Z,78.83
2018-06-24T13:20:01.554Z,79.30
2018-06-24T13:21:54.555Z,79.21
2018-06-24T13:22:54.620Z,79.50
2018-06-24T13:24:47.624Z,79.02
2018-06-24T13:25:47.697Z,79.21
2018-06-24T13:27:40.669Z,79.21
2018-06-24T13:28:40.741Z,78.83
2018-06-24T13:30:33.743Z,79.02
2018-06-24T13:31:33.810Z,78.98
2018-06-24T13:33:26.814Z,77.67
2018-06-24T13:34:26.873Z,79.30
2018-06-24T13:36:19.871Z,78.83
2018-06-24T13:37:19.939Z,79.30
2018-06-24T13:39:12.935Z,78.50
2018-06-24T13:40:12.998Z,78.63
2018-06-24T13:42:05.996Z,78.98
2018-06-24T13:43:06.060Z,78.50
2018-06-24T13:44:59.061Z,78.40
2018-06-24T13:45:59.119Z,78.30
2018-06-24T13:47:52.112Z,77.98
2018-06-24T13:48:52.177Z,77.31
2018-06-24T13:50:45.177Z,76.92
2018-06-24T13:51:45.234Z,77.31
2018-06-24T13:53:38.741Z,76.54
2018-06-24T13:54:38.800Z,76.44
2018-06-24T13:56:31.794Z,76.54
2018-06-24T13:57:31.859Z,76.86
2018-06-24T13:59:24.863Z,76.86
2018-06-24T14:00:24.927Z,76.77
2018-06-24T14:02:18.437Z,76.44
2018-06-24T14:03:18.492Z,76.86
2018-06-24T14:05:11.492Z,77.06
2018-06-24T14:06:11.554Z,76.86
2018-06-24T14:08:04.554Z,75.90
2018-06-24T14:09:04.614Z,76.29
2018-06-24T14:10:57.610Z,75.10
2018-06-24T14:11:57.670Z,75.10
2018-06-24T14:13:50.682Z,75.10
2018-06-24T14:14:50.729Z,73.94
2018-06-24T14:16:43.722Z,73.98
2018-06-24T14:17:43.796Z,71.93
2018-06-24T14:19:36.786Z,64.82
2018-06-24T14:20:36.842Z,60.95
2018-06-24T14:22:29.836Z,57.88
2018-06-24T14:23:30.070Z,56.53
2018-06-24T14:25:22.900Z,55.16
2018-06-24T14:26:22.963Z,51.51
2018-06-24T14:28:15.951Z,51.51
2018-06-24T14:29:16.015Z,51.81
2018-06-24T14:31:09.014Z,53.05
2018-06-24T14:32:09.081Z,53.46
2018-06-24T14:34:02.063Z,53.91
2018-06-24T14:35:02.127Z,54.01
2018-06-24T14:36:55.129Z,55.35
2018-06-24T14:37:55.187Z,54.49
2018-06-24T14:39:48.195Z,54.58
2018-06-24T14:40:48.242Z,55.26
2018-06-24T14:42:41.240Z,55.19
2018-06-24T14:43:41.304Z,55.07
2018-06-24T14:45:34.305Z,54.49
2018-06-24T14:46:34.360Z,55.19
2018-06-24T14:48:27.370Z,55.96
2018-06-24T14:49:27.416Z,55.77
2018-06-24T14:51:20.417Z,56.05
2018-06-24T14:52:20.471Z,55.38
2018-06-24T14:54:13.471Z,55.19
2018-06-24T14:55:13.531Z,54.71
2018-06-24T14:57:06.531Z,57.01
2018-06-24T14:58:06.587Z,57.30
2018-06-24T14:59:59.582Z,57.78
2018-06-24T15:00:59.644Z,58.36
2018-06-24T15:02:52.645Z,55.86
2018-06-24T15:03:52.704Z,58.74
2018-06-24T15:05:45.701Z,61.81
2018-06-24T15:06:45.758Z,60.38
2018-06-24T15:08:38.749Z,61.52
2018-06-24T15:09:38.814Z,61.62
2018-06-24T15:11:31.815Z,60.05
2018-06-24T15:12:31.870Z,59.51
2018-06-24T15:14:24.867Z,58.71
2018-06-24T15:15:24.932Z,57.85
2018-06-24T15:17:17.927Z,56.60
2018-06-24T15:18:17.989Z,57.28
2018-06-24T15:20:10.984Z,57.75
2018-06-24T15:21:11.051Z,58.23
2018-06-24T15:23:04.048Z,57.78
2018-06-24T15:24:04.103Z,58.55
2018-06-24T15:25:57.105Z,59.89
2018-06-24T15:26:57.161Z,58.36
2018-06-24T15:28:50.207Z,59.80
2018-06-24T15:29:50.220Z,59.96
2018-06-24T15:31:43.216Z,58.36
2018-06-24T15:32:43.273Z,58.94
2018-06-24T15:34:36.270Z,58.64
2018-06-24T15:35:36.334Z,58.36
2018-06-24T15:37:29.333Z,59.61
2018-06-24T15:38:29.385Z,58.64
2018-06-24T15:40:22.388Z,59.41
2018-06-24T15:41:22.450Z,57.81
2018-06-24T15:43:15.455Z,62.71
2018-06-24T15:44:15.511Z,63.60
2018-06-24T15:46:08.507Z,64.47
2018-06-24T15:47:08.569Z,64.95
2018-06-24T15:49:01.580Z,64.47
2018-06-24T15:50:01.631Z,64.95
2018-06-24T15:51:54.631Z,64.56
2018-06-24T15:52:54.687Z,64.37
2018-06-24T15:54:47.687Z,61.97
2018-06-24T15:55:47.744Z,62.45
2018-06-24T15:57:40.753Z,61.55
2018-06-24T15:58:40.803Z,61.87
2018-06-24T16:00:33.796Z,62.45
2018-06-24T16:01:33.862Z,61.78
2018-06-24T16:03:26.897Z,62.74
2018-06-24T16:04:26.915Z,62.74
2018-06-24T16:06:19.909Z,61.55
2018-06-24T16:07:19.976Z,61.65
2018-06-24T16:09:12.974Z,59.86
2018-06-24T16:10:13.033Z,58.99
2018-06-24T16:12:06.024Z,61.27
2018-06-24T16:13:06.092Z,60.50
2018-06-24T16:14:59.090Z,55.89
2018-06-24T16:15:59.149Z,56.56
2018-06-24T16:17:52.172Z,56.05
2018-06-24T16:18:52.205Z,56.15
2018-06-24T16:20:45.306Z,50.49
2018-06-24T16:21:45.260Z,53.46
2018-06-24T16:23:38.258Z,52.31
2018-06-24T16:24:38.318Z,54.13
2018-06-24T16:26:31.310Z,53.36
2018-06-24T16:27:31.371Z,53.17
2018-06-24T16:29:24.373Z,48.28
2018-06-24T16:30:24.424Z,46.84
2018-06-24T16:32:17.429Z,44.92
2018-06-24T16:33:17.489Z,45.40
2018-06-24T16:35:10.488Z,43.55
2018-06-24T16:36:10.544Z,42.30
2018-06-24T16:38:03.537Z,40.48
2018-06-24T16:39:03.600Z,42.50
2018-06-24T16:40:56.599Z,41.44
2018-06-24T16:41:56.656Z,39.91
2018-06-24T16:43:49.661Z,36.55
2018-06-24T16:44:49.714Z,36.16
2018-06-24T16:46:42.738Z,32.42
2018-06-24T16:47:42.767Z,32.21
2018-06-24T16:49:35.767Z,29.91
2018-06-24T16:50:35.859Z,30.49
2018-06-24T16:52:28.814Z,30.68
2018-06-24T16:53:28.875Z,28.96
2018-06-24T16:55:23.391Z,28.28
2018-06-24T16:56:23.440Z,28.67
2018-06-24T16:58:16.434Z,28.96
2018-06-24T16:59:16.493Z,29.82
2018-06-24T17:01:09.495Z,30.47
2018-06-24T17:02:09.548Z,29.24
2018-06-24T17:04:02.570Z,29.13
2018-06-24T17:05:02.609Z,29.33
2018-06-24T17:06:55.598Z,28.85
2018-06-24T17:07:55.663Z,28.75
2018-06-24T17:09:48.672Z,29.23
2018-06-24T17:10:48.752Z,28.94
2018-06-24T17:12:41.721Z,29.33
2018-06-24T17:13:41.778Z,28.94
2018-06-24T17:15:34.784Z,29.04
2018-06-24T17:16:34.837Z,29.42
2018-06-24T17:18:27.827Z,28.66
2018-06-24T17:19:27.890Z,28.17
2018-06-24T17:21:20.891Z,28.66
2018-06-24T17:22:20.946Z,28.94
2018-06-24T17:24:13.995Z,29.23
2018-06-24T17:25:14.408Z,28.75
2018-06-24T17:27:07.885Z,28.75
2018-06-24T17:28:07.996Z,28.85
2018-06-24T17:30:00.945Z,28.85
2018-06-24T17:31:00.999Z,28.92
2018-06-24T17:32:54.003Z,28.94
2018-06-24T17:33:54.060Z,28.75
2018-06-24T17:35:49.584Z,29.13
2018-06-24T17:36:49.638Z,28.75
2018-06-24T17:38:42.630Z,28.94
2018-06-24T17:39:42.694Z,29.61
2018-06-24T17:41:35.707Z,30.76
2018-06-24T17:42:35.757Z,29.71
2018-06-24T17:44:28.756Z,29.71
2018-06-24T17:45:28.820Z,29.04
2018-06-24T17:47:21.821Z,29.52
2018-06-24T17:48:21.871Z,29.71
2018-06-24T17:50:14.872Z,29.80
2018-06-24T17:51:14.933Z,29.71
2018-06-24T17:53:07.990Z,30.86
2018-06-24T17:54:07.990Z,30.19
2018-06-24T17:56:00.993Z,31.07
2018-06-24T17:57:01.040Z,30.57
2018-06-24T17:58:54.032Z,30.96
2018-06-24T17:59:54.094Z,30.57
2018-06-24T18:01:47.090Z,31.53
2018-06-24T18:02:47.151Z,30.30
2018-06-24T18:04:40.142Z,30.78
2018-06-24T18:05:40.204Z,29.63
2018-06-24T18:07:33.204Z,31.93
2018-06-24T18:08:33.262Z,31.43
2018-06-24T18:10:26.261Z,30.76
2018-06-24T18:11:26.324Z,30.96
2018-06-24T18:13:19.319Z,30.76
2018-06-24T18:14:19.378Z,31.05
2018-06-24T18:16:12.383Z,31.63
2018-06-24T18:17:12.438Z,30.67
2018-06-24T18:19:05.434Z,31.24
2018-06-24T18:20:05.498Z,31.05
2018-06-24T18:21:58.490Z,32.39
2018-06-24T18:22:58.547Z,31.24
2018-06-24T18:24:51.546Z,31.34
2018-06-24T18:25:51.612Z,31.63
2018-06-24T18:27:44.646Z,31.92
2018-06-24T18:28:44.663Z,31.24
2018-06-24T18:30:37.661Z,31.82
2018-06-24T18:31:37.725Z,32.10
2018-06-24T18:33:30.715Z,32.20
2018-06-24T18:34:30.771Z,32.10
2018-06-24T18:36:25.262Z,32.59
2018-06-24T18:37:25.320Z,31.92
2018-06-24T18:39:18.351Z,32.49